Winchester, Indiana
Current Conditions -  °F | °C
As of 9:53 AM on Monday 22 Dec 2014 (Local Time) from KMIE Reporting Station
Broken Clouds Broken Clouds  
Wind Chill: 28°   Ceiling: 9000
Heat Index: 36°   Visibility: 7mi
Dew Point: 29°   Wind: 10mph
Humidity: 76%   Direction: 150°SSE
Pressure: 29.96"   Gusts: NA
Location:  40.17°N, 84.98°W
Report Text: KMIE 221453Z 15009KT 7SM BKN090 02/M02 A2996 RMK AO2 SLP151 T00221017 58012
Loading
Personal Weather Stations






























Interactive Weather Map New forecast layout! Learn more

10-Day Weather Forecast

Advertisements
Track Severe Weather on mobile